createdAt,value
2023-05-25T00:00:10.035Z,83.40
2023-05-25T00:02:17.420Z,83.30
2023-05-25T00:04:28.296Z,83.40
2023-05-25T00:06:38.496Z,83.50
2023-05-25T00:08:45.524Z,83.40
2023-05-25T00:10:52.858Z,83.20
2023-05-25T00:12:59.879Z,83.20
2023-05-25T00:15:07.624Z,83.30
2023-05-25T00:17:14.867Z,83.30
2023-05-25T00:19:22.454Z,83.20
2023-05-25T00:21:31.222Z,83.00
2023-05-25T00:23:38.673Z,82.80
2023-05-25T00:25:45.978Z,82.70
2023-05-25T00:27:53.196Z,82.60
2023-05-25T00:30:00.214Z,83.20
2023-05-25T00:32:07.890Z,82.90
2023-05-25T00:34:15.225Z,83.00
2023-05-25T00:36:22.820Z,82.90
2023-05-25T00:38:33.637Z,82.90
2023-05-25T00:40:42.513Z,82.90
2023-05-25T00:42:50.161Z,82.70
2023-05-25T00:44:57.797Z,82.50
2023-05-25T00:47:05.435Z,82.50
2023-05-25T00:49:12.776Z,82.40
2023-05-25T00:51:20.009Z,82.30
2023-05-25T00:53:27.693Z,82.10
2023-05-25T00:55:40.058Z,81.90
2023-05-25T00:57:49.239Z,81.50
2023-05-25T01:00:00.731Z,81.60
2023-05-25T01:02:08.769Z,81.70
2023-05-25T01:04:19.068Z,81.70
2023-05-25T01:06:28.202Z,81.60
2023-05-25T01:08:38.966Z,81.70
2023-05-25T01:10:51.928Z,81.80
2023-05-25T01:13:01.160Z,81.90
2023-05-25T01:15:10.806Z,81.90
2023-05-25T01:17:18.705Z,81.70
2023-05-25T01:19:25.992Z,81.60
2023-05-25T01:21:43.151Z,81.50
2023-05-25T01:23:56.161Z,81.30
2023-05-25T01:26:06.413Z,81.30
2023-05-25T01:28:18.619Z,81.30
2023-05-25T01:30:28.610Z,81.20
2023-05-25T01:32:38.531Z,80.90
2023-05-25T01:34:47.391Z,80.80
2023-05-25T01:36:57.835Z,80.90
2023-05-25T01:39:04.870Z,80.90
2023-05-25T01:41:12.204Z,80.40
2023-05-25T01:43:19.432Z,80.00
2023-05-25T01:45:26.948Z,79.80
2023-05-25T01:47:40.194Z,79.70
2023-05-25T01:49:55.681Z,79.60
2023-05-25T01:52:10.935Z,79.50
2023-05-25T01:54:24.123Z,79.40
2023-05-25T01:56:34.595Z,79.30
2023-05-25T01:58:45.282Z,79.20
2023-05-25T02:00:54.755Z,78.60
2023-05-25T02:03:04.356Z,78.40
2023-05-25T02:05:12.524Z,78.30
2023-05-25T02:07:21.593Z,78.00
2023-05-25T02:09:28.878Z,77.90
2023-05-25T02:11:36.105Z,77.90
2023-05-25T02:13:43.039Z,78.00
2023-05-25T02:15:50.571Z,78.00
2023-05-25T02:17:59.112Z,78.00
2023-05-25T02:20:10.994Z,78.00
2023-05-25T02:22:19.709Z,78.00
2023-05-25T02:24:27.909Z,78.00
2023-05-25T02:26:35.187Z,78.20
2023-05-25T02:28:42.429Z,77.80
2023-05-25T02:30:50.176Z,77.50
2023-05-25T02:32:59.040Z,77.40
2023-05-25T02:35:06.062Z,77.10
2023-05-25T02:37:13.708Z,76.80
2023-05-25T02:39:23.405Z,76.60
2023-05-25T02:41:30.832Z,76.60
2023-05-25T02:43:38.743Z,76.90
2023-05-25T02:45:46.123Z,77.00
2023-05-25T02:47:53.131Z,76.80
2023-05-25T02:50:02.605Z,76.50
2023-05-25T02:52:11.201Z,76.30
2023-05-25T02:54:18.433Z,76.40
2023-05-25T02:56:28.733Z,76.30
2023-05-25T02:58:37.666Z,76.00
2023-05-25T03:00:53.464Z,75.80
2023-05-25T03:03:00.799Z,76.30
2023-05-25T03:05:09.795Z,76.40
2023-05-25T03:07:17.236Z,76.40
2023-05-25T03:09:24.265Z,75.90
2023-05-25T03:11:33.298Z,75.50
2023-05-25T03:13:42.515Z,74.90
2023-05-25T03:15:49.803Z,74.70
2023-05-25T03:18:02.235Z,74.20
2023-05-25T03:20:16.730Z,74.00
2023-05-25T03:22:26.763Z,74.00
2023-05-25T03:24:33.835Z,73.30
2023-05-25T03:26:44.311Z,73.10
2023-05-25T03:28:52.047Z,73.60
2023-05-25T03:30:59.424Z,74.10
2023-05-25T03:33:07.066Z,74.20
2023-05-25T03:35:21.287Z,74.40
2023-05-25T03:37:28.447Z,74.40
2023-05-25T03:39:35.890Z,74.40
2023-05-25T03:41:45.320Z,74.80
2023-05-25T03:43:53.328Z,74.70
2023-05-25T03:46:00.686Z,74.50
2023-05-25T03:48:08.506Z,74.30
2023-05-25T03:50:16.299Z,74.30
2023-05-25T03:52:23.632Z,74.60
2023-05-25T03:54:30.874Z,74.80
2023-05-25T03:56:38.303Z,74.90
2023-05-25T03:58:47.131Z,74.80
2023-05-25T04:00:54.413Z,75.40
2023-05-25T04:03:01.822Z,75.30
2023-05-25T04:05:09.658Z,75.00
2023-05-25T04:07:16.982Z,74.80
2023-05-25T04:09:24.376Z,74.00
2023-05-25T04:11:31.497Z,74.00
2023-05-25T04:13:41.238Z,73.50
2023-05-25T04:15:51.066Z,73.40
2023-05-25T04:18:04.059Z,73.30
2023-05-25T04:20:12.960Z,72.70
2023-05-25T04:22:20.359Z,72.40
2023-05-25T04:24:27.690Z,72.10
2023-05-25T04:26:35.692Z,72.30
2023-05-25T04:28:43.641Z,72.00
2023-05-25T04:31:21.521Z,72.10
2023-05-25T04:34:00.836Z,71.60
2023-05-25T04:36:12.104Z,70.90
2023-05-25T04:38:20.204Z,70.70
2023-05-25T04:40:29.182Z,70.10
2023-05-25T04:42:36.160Z,70.00
2023-05-25T04:44:43.854Z,69.50
2023-05-25T04:46:53.444Z,69.10
2023-05-25T04:49:09.426Z,68.70
2023-05-25T04:51:17.380Z,68.90
2023-05-25T04:53:24.781Z,69.00
2023-05-25T04:55:32.100Z,69.20
2023-05-25T04:57:39.640Z,69.30
2023-05-25T04:59:46.926Z,68.20
2023-05-25T05:01:55.726Z,68.30
2023-05-25T05:04:03.387Z,68.60
2023-05-25T05:06:12.007Z,68.30
2023-05-25T05:08:19.501Z,67.90
2023-05-25T05:10:26.782Z,67.90
2023-05-25T05:12:36.784Z,68.00
2023-05-25T05:14:44.911Z,67.70
2023-05-25T05:16:54.064Z,67.30
2023-05-25T05:19:01.394Z,66.80
2023-05-25T05:21:09.597Z,66.30
2023-05-25T05:23:17.139Z,66.20
2023-05-25T05:25:24.479Z,66.40
2023-05-25T05:27:31.758Z,66.00
2023-05-25T05:29:48.220Z,65.50
2023-05-25T05:31:57.752Z,65.50
2023-05-25T05:34:05.561Z,65.10
2023-05-25T05:36:13.137Z,64.60
2023-05-25T05:38:20.872Z,65.10
2023-05-25T05:40:28.832Z,65.90
2023-05-25T05:42:36.006Z,65.90
2023-05-25T05:44:43.186Z,65.90
2023-05-25T05:46:50.545Z,66.10
2023-05-25T05:48:59.396Z,66.10
2023-05-25T05:51:07.036Z,66.20
2023-05-25T05:53:14.677Z,66.30
2023-05-25T05:55:22.113Z,66.60
2023-05-25T05:57:31.700Z,67.20
2023-05-25T05:59:39.705Z,67.40
2023-05-25T06:01:47.151Z,67.70
2023-05-25T06:03:56.094Z,67.30
2023-05-25T06:06:04.997Z,67.30
2023-05-25T06:08:13.498Z,66.70
2023-05-25T06:10:20.759Z,66.20
2023-05-25T06:12:29.001Z,65.70
2023-05-25T06:14:36.242Z,65.20
2023-05-25T06:16:46.409Z,64.40
2023-05-25T06:18:53.447Z,64.20
2023-05-25T06:21:00.780Z,64.50
2023-05-25T06:23:10.415Z,64.50
2023-05-25T06:25:17.859Z,64.30
2023-05-25T06:27:26.223Z,64.30
2023-05-25T06:29:33.555Z,63.80
2023-05-25T06:31:40.558Z,63.70
2023-05-25T06:33:48.033Z,63.70
2023-05-25T06:35:58.312Z,64.10
2023-05-25T06:38:06.180Z,64.50
2023-05-25T06:40:15.815Z,64.40
2023-05-25T06:42:24.166Z,64.30
2023-05-25T06:44:35.808Z,64.70
2023-05-25T06:46:46.381Z,64.80
2023-05-25T06:48:54.797Z,64.70
2023-05-25T06:51:01.970Z,64.60
2023-05-25T06:53:08.945Z,64.10
2023-05-25T06:55:18.180Z,63.40
2023-05-25T06:57:25.299Z,63.40
2023-05-25T06:59:32.683Z,63.50
2023-05-25T07:01:39.678Z,63.00
2023-05-25T07:03:47.258Z,62.60
2023-05-25T07:05:54.190Z,62.10
2023-05-25T07:08:01.355Z,61.70
2023-05-25T07:10:09.102Z,61.30
2023-05-25T07:12:18.206Z,61.30
2023-05-25T07:14:25.168Z,61.30
2023-05-25T07:16:33.230Z,61.50
2023-05-25T07:18:43.214Z,62.00
2023-05-25T07:20:50.443Z,62.80
2023-05-25T07:22:57.470Z,63.30
2023-05-25T07:25:05.111Z,63.20
2023-05-25T07:27:12.308Z,63.00
2023-05-25T07:29:21.167Z,63.40
2023-05-25T07:31:28.382Z,63.30
2023-05-25T07:33:35.424Z,62.70
2023-05-25T07:35:42.789Z,62.50
2023-05-25T07:37:49.937Z,62.10
2023-05-25T07:39:57.129Z,62.10
2023-05-25T07:42:04.116Z,62.30
2023-05-25T07:44:11.511Z,63.10
2023-05-25T07:46:23.410Z,63.60
2023-05-25T07:48:30.611Z,64.00
2023-05-25T07:50:37.560Z,64.80
2023-05-25T07:52:45.178Z,64.90
2023-05-25T07:54:52.559Z,65.30
2023-05-25T07:56:59.803Z,65.50
2023-05-25T07:59:06.723Z,65.60
2023-05-25T08:01:14.061Z,65.90
2023-05-25T08:03:31.906Z,66.40
2023-05-25T08:05:43.437Z,66.70
2023-05-25T08:07:50.673Z,66.70
2023-05-25T08:09:58.156Z,66.70
2023-05-25T08:12:27.147Z,67.00
2023-05-25T08:14:32.480Z,66.80
2023-05-25T08:16:39.470Z,65.70
2023-05-25T08:18:48.894Z,65.60
2023-05-25T08:20:56.015Z,65.90
2023-05-25T08:23:03.466Z,66.00
2023-05-25T08:25:10.943Z,66.30
2023-05-25T08:27:18.182Z,66.90
2023-05-25T08:29:25.358Z,67.70
2023-05-25T08:31:32.943Z,66.90
2023-05-25T08:33:40.954Z,67.10
2023-05-25T08:35:51.620Z,67.20
2023-05-25T08:37:58.489Z,67.70
2023-05-25T08:40:09.059Z,68.00
2023-05-25T08:42:16.182Z,68.20
2023-05-25T08:44:24.428Z,68.70
2023-05-25T08:46:33.872Z,69.10
2023-05-25T08:48:42.725Z,69.20
2023-05-25T08:50:52.784Z,69.70
2023-05-25T08:53:05.804Z,71.50
2023-05-25T08:55:14.113Z,70.50
2023-05-25T08:57:26.926Z,72.20
2023-05-25T08:59:41.233Z,73.40
2023-05-25T09:01:49.972Z,73.40
2023-05-25T09:03:58.315Z,73.70
2023-05-25T09:06:07.634Z,71.40
2023-05-25T09:08:14.881Z,72.20
2023-05-25T09:10:23.027Z,74.30
2023-05-25T09:12:32.474Z,75.10
2023-05-25T09:14:46.574Z,77.40
2023-05-25T09:16:54.776Z,78.40
2023-05-25T09:19:02.594Z,80.30
2023-05-25T09:21:11.320Z,79.10
2023-05-25T09:23:18.950Z,80.90
2023-05-25T09:25:27.439Z,79.80
2023-05-25T09:27:38.994Z,79.50
2023-05-25T09:29:45.938Z,76.80
2023-05-25T09:31:54.002Z,76.30
2023-05-25T09:34:01.686Z,76.00
2023-05-25T09:36:12.272Z,74.40
2023-05-25T09:38:19.839Z,74.10
2023-05-25T09:40:27.287Z,74.20
2023-05-25T09:42:34.252Z,73.70
2023-05-25T09:44:41.650Z,73.90
2023-05-25T09:46:48.778Z,74.70
2023-05-25T09:48:56.773Z,74.60
2023-05-25T09:51:03.799Z,74.60
2023-05-25T09:53:12.936Z,74.90
2023-05-25T09:55:20.167Z,76.30
2023-05-25T09:57:27.550Z,76.40
2023-05-25T09:59:34.983Z,77.60
2023-05-25T10:01:43.998Z,77.30
2023-05-25T10:04:03.434Z,76.80
2023-05-25T10:06:12.628Z,77.20
2023-05-25T10:08:26.296Z,77.20
2023-05-25T10:10:35.584Z,76.80
2023-05-25T10:12:45.931Z,76.70
2023-05-25T10:14:55.368Z,76.60
2023-05-25T10:17:07.770Z,76.30
2023-05-25T10:19:19.400Z,76.00
2023-05-25T10:21:28.630Z,74.70
2023-05-25T10:23:43.004Z,74.40
2023-05-25T10:25:54.297Z,75.20
2023-05-25T10:28:06.205Z,75.20
2023-05-25T10:30:14.407Z,75.20
2023-05-25T10:32:22.080Z,75.30
2023-05-25T10:34:30.008Z,75.00
2023-05-25T10:36:37.944Z,75.00
2023-05-25T10:38:47.027Z,74.90
2023-05-25T10:40:56.304Z,74.80
2023-05-25T10:43:03.742Z,74.80
2023-05-25T10:45:12.563Z,74.50
2023-05-25T10:47:20.868Z,73.70
2023-05-25T10:49:36.613Z,74.00
2023-05-25T10:51:44.960Z,74.20
2023-05-25T10:54:04.276Z,74.20
2023-05-25T10:56:13.968Z,73.20
2023-05-25T10:58:22.585Z,73.70
2023-05-25T11:00:34.301Z,73.70
2023-05-25T11:02:54.740Z,73.80
2023-05-25T11:05:39.415Z,73.90
2023-05-25T11:07:57.402Z,74.30
2023-05-25T11:10:06.127Z,74.00
2023-05-25T11:12:21.656Z,73.80
2023-05-25T11:14:32.807Z,74.30
2023-05-25T11:16:41.192Z,74.60
2023-05-25T11:18:52.813Z,74.40
2023-05-25T11:21:19.823Z,75.00
2023-05-25T11:23:27.874Z,75.40
2023-05-25T11:25:45.867Z,75.40
2023-05-25T11:27:57.192Z,74.60
2023-05-25T11:30:04.276Z,74.90
2023-05-25T11:32:17.286Z,75.40
2023-05-25T11:34:27.174Z,75.90
2023-05-25T11:36:35.349Z,76.20
2023-05-25T11:38:56.280Z,76.40
2023-05-25T11:41:08.029Z,76.50
2023-05-25T11:43:15.871Z,76.50
2023-05-25T11:45:27.562Z,76.50
2023-05-25T11:47:35.797Z,76.80
2023-05-25T11:49:47.200Z,76.70
2023-05-25T11:51:54.188Z,76.80
2023-05-25T11:54:01.657Z,77.00
2023-05-25T11:56:11.314Z,77.00
2023-05-25T11:58:20.021Z,76.20
2023-05-25T12:00:31.088Z,76.20
2023-05-25T12:02:42.670Z,76.40
2023-05-25T12:04:58.129Z,76.40
2023-05-25T12:07:09.375Z,76.90
2023-05-25T12:09:16.810Z,77.10
2023-05-25T12:11:32.394Z,77.30
2023-05-25T12:13:39.622Z,77.70
2023-05-25T12:15:47.103Z,78.10
2023-05-25T12:17:55.256Z,78.20
2023-05-25T12:20:02.735Z,78.30
2023-05-25T12:22:10.247Z,78.40
2023-05-25T12:24:17.736Z,78.20
2023-05-25T12:26:26.504Z,78.30
2023-05-25T12:28:33.736Z,78.50
2023-05-25T12:30:40.895Z,79.10
2023-05-25T12:33:04.876Z,79.20
2023-05-25T12:35:12.537Z,79.80
2023-05-25T12:37:24.524Z,79.30
2023-05-25T12:39:40.316Z,79.10
2023-05-25T12:41:54.742Z,79.20
2023-05-25T12:44:02.366Z,79.90
2023-05-25T12:46:09.850Z,79.90
2023-05-25T12:48:17.333Z,80.30
2023-05-25T12:50:24.775Z,80.80
2023-05-25T12:52:38.755Z,80.50
2023-05-25T12:54:48.094Z,80.50
2023-05-25T12:57:03.515Z,80.40
2023-05-25T12:59:19.709Z,80.80
2023-05-25T13:01:27.116Z,80.80
2023-05-25T13:03:34.501Z,80.80
2023-05-25T13:05:42.058Z,81.00
2023-05-25T13:07:49.319Z,81.00
2023-05-25T13:09:56.311Z,81.20
2023-05-25T13:12:06.030Z,81.10
2023-05-25T13:14:12.949Z,81.50
2023-05-25T13:16:20.530Z,81.50
2023-05-25T13:18:27.686Z,81.70
2023-05-25T13:20:35.176Z,81.70
2023-05-25T13:22:42.965Z,82.30
2023-05-25T13:24:50.199Z,82.40
2023-05-25T13:26:57.377Z,82.70
2023-05-25T13:29:06.508Z,82.70
2023-05-25T13:31:13.837Z,82.70
2023-05-25T13:33:21.168Z,83.30
2023-05-25T13:35:42.497Z,83.40
2023-05-25T13:37:49.654Z,83.60
2023-05-25T13:39:57.370Z,84.10
2023-05-25T13:42:04.290Z,84.10
2023-05-25T13:44:17.340Z,84.10
2023-05-25T13:46:34.312Z,84.20
2023-05-25T13:48:48.599Z,84.20
2023-05-25T13:50:55.858Z,84.20
2023-05-25T13:53:03.134Z,84.10
2023-05-25T13:55:10.873Z,84.10
2023-05-25T13:57:18.423Z,84.00
2023-05-25T13:59:27.669Z,83.90
2023-05-25T14:01:35.532Z,83.80
2023-05-25T14:03:43.133Z,83.60
2023-05-25T14:05:50.838Z,83.20
2023-05-25T14:07:57.806Z,82.70
2023-05-25T14:10:05.965Z,81.70
2023-05-25T14:12:14.304Z,80.80
2023-05-25T14:14:31.397Z,79.60
2023-05-25T14:16:44.515Z,78.80
2023-05-25T14:18:51.836Z,77.80
2023-05-25T14:20:58.924Z,77.30
2023-05-25T14:23:06.659Z,76.90
2023-05-25T14:25:13.962Z,76.20
2023-05-25T14:27:22.628Z,75.90
2023-05-25T14:29:29.557Z,75.50
2023-05-25T14:31:36.923Z,75.10
2023-05-25T14:33:45.690Z,75.10
2023-05-25T14:35:53.137Z,75.00
2023-05-25T14:38:00.165Z,75.00
2023-05-25T14:40:07.850Z,75.20
2023-05-25T14:42:14.722Z,75.40
2023-05-25T14:44:22.066Z,75.20
2023-05-25T14:46:29.136Z,75.30
2023-05-25T14:48:37.341Z,75.80
2023-05-25T14:50:46.234Z,76.40
2023-05-25T14:52:53.503Z,76.70
2023-05-25T14:55:00.851Z,77.30
2023-05-25T14:57:08.270Z,78.20
2023-05-25T14:59:15.247Z,78.40
2023-05-25T15:01:25.041Z,78.20
2023-05-25T15:03:32.613Z,77.50
2023-05-25T15:05:39.864Z,76.80
2023-05-25T15:07:48.633Z,76.50
2023-05-25T15:09:55.817Z,76.90
2023-05-25T15:12:03.010Z,77.10
2023-05-25T15:14:10.437Z,77.40
2023-05-25T15:16:17.776Z,77.70
2023-05-25T15:18:25.114Z,78.60
2023-05-25T15:20:32.078Z,79.60
2023-05-25T15:22:39.376Z,80.00
2023-05-25T15:24:48.197Z,80.30
2023-05-25T15:26:55.676Z,80.60
2023-05-25T15:29:02.709Z,80.60
2023-05-25T15:31:10.260Z,80.00
2023-05-25T15:33:17.937Z,79.50
2023-05-25T15:35:31.930Z,79.60
2023-05-25T15:37:39.225Z,79.70
2023-05-25T15:39:47.954Z,79.70
2023-05-25T15:41:55.228Z,79.30
2023-05-25T15:44:02.448Z,78.90
2023-05-25T15:46:09.883Z,78.70
2023-05-25T15:48:19.528Z,78.50
2023-05-25T15:50:27.127Z,78.30
2023-05-25T15:52:33.995Z,78.20
2023-05-25T15:54:41.231Z,78.30
2023-05-25T15:56:49.945Z,78.40
2023-05-25T15:58:57.287Z,78.70
2023-05-25T16:01:04.940Z,79.00
2023-05-25T16:03:12.346Z,78.10
2023-05-25T16:05:19.384Z,77.90
2023-05-25T16:07:26.820Z,78.30
2023-05-25T16:09:34.267Z,78.40
2023-05-25T16:11:41.511Z,78.50
2023-05-25T16:13:50.578Z,78.50
2023-05-25T16:15:58.075Z,78.20
2023-05-25T16:18:05.051Z,77.80
2023-05-25T16:20:13.367Z,78.10
2023-05-25T16:22:20.422Z,77.90
2023-05-25T16:24:27.734Z,77.10
2023-05-25T16:26:34.792Z,76.80
2023-05-25T16:28:42.332Z,75.60
2023-05-25T16:30:51.049Z,75.70
2023-05-25T16:32:58.528Z,76.40
2023-05-25T16:35:05.518Z,77.70
2023-05-25T16:37:12.535Z,78.80
2023-05-25T16:39:19.921Z,79.50
2023-05-25T16:41:27.724Z,80.30
2023-05-25T16:43:34.800Z,81.10
2023-05-25T16:45:42.138Z,81.20
2023-05-25T16:47:50.936Z,81.80
2023-05-25T16:49:58.087Z,82.00
2023-05-25T16:52:05.319Z,82.40
2023-05-25T16:54:12.702Z,83.20
2023-05-25T16:56:19.676Z,83.50
2023-05-25T16:58:27.278Z,83.70
2023-05-25T17:00:34.151Z,83.80
2023-05-25T17:02:41.367Z,84.20
2023-05-25T17:04:50.046Z,84.50
2023-05-25T17:06:58.924Z,84.30
2023-05-25T17:09:06.096Z,84.50
2023-05-25T17:11:13.397Z,85.20
2023-05-25T17:13:20.662Z,86.30
2023-05-25T17:15:27.948Z,86.90
2023-05-25T17:17:35.528Z,88.10
2023-05-25T17:19:42.828Z,88.60
2023-05-25T17:21:51.642Z,89.50
2023-05-25T17:23:58.928Z,89.50
2023-05-25T17:26:06.312Z,90.00
2023-05-25T17:28:13.650Z,89.70
2023-05-25T17:30:20.878Z,89.50
2023-05-25T17:32:28.286Z,89.20
2023-05-25T17:34:35.138Z,89.10
2023-05-25T17:36:43.446Z,89.10
2023-05-25T17:38:52.587Z,88.90
2023-05-25T17:40:59.819Z,88.90
2023-05-25T17:43:06.842Z,89.10
2023-05-25T17:45:15.057Z,89.00
2023-05-25T17:47:33.891Z,89.10
2023-05-25T17:49:47.135Z,89.10
2023-05-25T17:51:54.214Z,88.70
2023-05-25T17:54:03.317Z,88.30
2023-05-25T17:56:11.025Z,88.30
2023-05-25T17:58:18.695Z,88.20
2023-05-25T18:00:27.067Z,88.30
2023-05-25T18:02:35.326Z,88.30
2023-05-25T18:04:42.414Z,88.60
2023-05-25T18:06:50.982Z,88.50
2023-05-25T18:08:58.316Z,88.30
2023-05-25T18:11:07.549Z,88.20
2023-05-25T18:13:14.425Z,88.10
2023-05-25T18:15:21.976Z,88.10
2023-05-25T18:17:29.114Z,88.20
2023-05-25T18:19:36.530Z,87.80
2023-05-25T18:21:43.966Z,87.60
2023-05-25T18:23:53.507Z,87.50
2023-05-25T18:26:00.527Z,87.40
2023-05-25T18:28:09.555Z,87.20
2023-05-25T18:30:17.553Z,87.00
2023-05-25T18:32:24.763Z,86.80
2023-05-25T18:34:31.979Z,86.70
2023-05-25T18:36:39.201Z,86.70
2023-05-25T18:38:46.484Z,86.60
2023-05-25T18:40:53.825Z,86.60
2023-05-25T18:43:00.844Z,86.90
2023-05-25T18:45:10.919Z,87.00
2023-05-25T18:47:17.888Z,86.90
2023-05-25T18:49:25.623Z,86.80
2023-05-25T18:51:32.698Z,86.80
2023-05-25T18:53:39.743Z,86.80
2023-05-25T18:55:47.187Z,86.90
2023-05-25T18:57:54.549Z,86.80
2023-05-25T19:00:01.629Z,86.90
2023-05-25T19:02:11.440Z,87.00
2023-05-25T19:04:18.656Z,87.20
2023-05-25T19:06:25.944Z,87.30
2023-05-25T19:08:33.020Z,87.40
2023-05-25T19:10:42.305Z,87.60
2023-05-25T19:12:49.389Z,87.70
2023-05-25T19:14:56.808Z,87.80
2023-05-25T19:17:04.004Z,87.80
2023-05-25T19:19:12.873Z,88.00
2023-05-25T19:21:19.791Z,88.10
2023-05-25T19:23:27.086Z,88.20
2023-05-25T19:25:34.003Z,88.00
2023-05-25T19:27:41.347Z,88.00
2023-05-25T19:29:48.933Z,88.00
2023-05-25T19:31:56.245Z,88.30
2023-05-25T19:34:03.400Z,88.60
2023-05-25T19:36:12.470Z,88.90
2023-05-25T19:38:20.066Z,89.10
2023-05-25T19:40:27.422Z,89.50
2023-05-25T19:42:36.165Z,89.70
2023-05-25T19:44:43.701Z,89.90
2023-05-25T19:46:50.687Z,90.10
2023-05-25T19:48:58.838Z,90.30
2023-05-25T19:51:05.742Z,90.40
2023-05-25T19:53:14.852Z,90.30
2023-05-25T19:55:21.978Z,90.30
2023-05-25T19:57:29.770Z,90.30
2023-05-25T19:59:38.585Z,90.30
2023-05-25T20:01:48.163Z,90.90
2023-05-25T20:03:55.394Z,90.90
2023-05-25T20:06:02.698Z,91.00
2023-05-25T20:08:09.827Z,91.20
2023-05-25T20:10:18.803Z,91.40
2023-05-25T20:12:25.672Z,91.40
2023-05-25T20:14:34.789Z,91.60
2023-05-25T20:16:41.922Z,91.50
2023-05-25T20:18:49.414Z,91.70
2023-05-25T20:20:56.389Z,91.70
2023-05-25T20:23:03.418Z,92.00
2023-05-25T20:25:11.263Z,92.40
2023-05-25T20:27:20.141Z,92.60
2023-05-25T20:29:27.328Z,92.70
2023-05-25T20:31:34.557Z,92.70
2023-05-25T20:33:41.474Z,92.60
2023-05-25T20:35:48.655Z,92.70
2023-05-25T20:37:55.637Z,92.90
2023-05-25T20:40:02.786Z,92.90
2023-05-25T20:42:11.333Z,93.10
2023-05-25T20:44:20.263Z,93.20
2023-05-25T20:46:27.481Z,93.30
2023-05-25T20:48:34.822Z,93.30
2023-05-25T20:50:41.752Z,93.40
2023-05-25T20:52:48.937Z,93.60
2023-05-25T20:54:55.801Z,93.60
2023-05-25T20:57:04.498Z,93.70
2023-05-25T20:59:12.115Z,93.70
2023-05-25T21:01:21.422Z,93.80
2023-05-25T21:03:28.569Z,93.90
2023-05-25T21:05:42.155Z,93.90
2023-05-25T21:07:49.952Z,94.20
2023-05-25T21:10:00.409Z,94.20
2023-05-25T21:12:08.672Z,94.50
2023-05-25T21:14:15.904Z,94.40
2023-05-25T21:16:26.916Z,94.20
2023-05-25T21:18:34.872Z,94.60
2023-05-25T21:20:41.944Z,95.00
2023-05-25T21:22:49.286Z,94.70
2023-05-25T21:24:56.527Z,94.90
2023-05-25T21:27:03.656Z,95.20
2023-05-25T21:29:10.577Z,95.70
2023-05-25T21:31:17.856Z,96.10
2023-05-25T21:33:26.486Z,95.80
2023-05-25T21:35:33.816Z,96.00
2023-05-25T21:37:40.885Z,96.30
2023-05-25T21:39:48.233Z,96.30
2023-05-25T21:41:55.352Z,96.00
2023-05-25T21:44:02.531Z,95.80
2023-05-25T21:46:09.409Z,95.70
2023-05-25T21:48:16.687Z,95.90
2023-05-25T21:50:25.569Z,95.60
2023-05-25T21:52:32.895Z,95.60
2023-05-25T21:54:41.974Z,96.00
2023-05-25T21:56:49.923Z,95.90
2023-05-25T21:58:57.468Z,95.80
2023-05-25T22:01:04.840Z,95.50
2023-05-25T22:03:12.157Z,95.60
2023-05-25T22:05:19.523Z,95.60
2023-05-25T22:07:28.133Z,95.30
2023-05-25T22:09:35.470Z,95.30
2023-05-25T22:11:44.386Z,95.60
2023-05-25T22:13:51.530Z,95.60
2023-05-25T22:15:58.611Z,96.00
2023-05-25T22:18:07.028Z,96.10
2023-05-25T22:20:15.209Z,96.20
2023-05-25T22:22:22.552Z,96.40
2023-05-25T22:24:31.638Z,96.20
2023-05-25T22:26:38.705Z,96.00
2023-05-25T22:28:46.045Z,96.00
2023-05-25T22:30:53.296Z,96.10
2023-05-25T22:33:00.682Z,96.50
2023-05-25T22:35:08.056Z,96.60
2023-05-25T22:37:15.435Z,96.60
2023-05-25T22:39:22.410Z,96.70
2023-05-25T22:41:31.435Z,96.80
2023-05-25T22:43:38.357Z,96.80
2023-05-25T22:45:45.958Z,96.80
2023-05-25T22:47:56.094Z,97.00
2023-05-25T22:50:03.499Z,97.10
2023-05-25T22:52:10.631Z,96.90
2023-05-25T22:54:18.061Z,96.70
2023-05-25T22:56:25.037Z,96.70
2023-05-25T23:01:04.226Z,96.60
2023-05-25T23:03:14.825Z,96.70
2023-05-25T23:05:22.344Z,96.70
2023-05-25T23:07:29.562Z,96.80
2023-05-25T23:09:36.693Z,96.50
2023-05-25T23:11:43.997Z,96.10
2023-05-25T23:13:55.742Z,95.50
2023-05-25T23:16:03.077Z,95.20
2023-05-25T23:18:14.487Z,95.20
2023-05-25T23:20:21.730Z,95.00
2023-05-25T23:22:28.898Z,94.80
2023-05-25T23:24:36.188Z,94.60
2023-05-25T23:26:43.101Z,94.20
2023-05-25T23:28:52.005Z,93.90
2023-05-25T23:30:59.672Z,93.90
2023-05-25T23:33:09.342Z,93.80
2023-05-25T23:35:16.393Z,93.90
2023-05-25T23:37:23.791Z,93.90
2023-05-25T23:39:30.813Z,93.70
2023-05-25T23:41:38.147Z,93.60
2023-05-25T23:43:45.386Z,93.50
2023-05-25T23:45:54.240Z,93.20
2023-05-25T23:48:06.840Z,93.00
2023-05-25T23:50:14.762Z,92.70
2023-05-25T23:52:21.685Z,92.50
2023-05-25T23:54:29.014Z,92.30
2023-05-25T23:56:37.625Z,92.20
2023-05-25T23:58:46.052Z,92.20
